sensor_id;sensor_type;location;lat;lon;timestamp;pressure;altitude;pressure_sealevel;temperature;humidity
10881;BME280;5493;48.884;8.338;2023-01-29T00:02:25;101482.09;;;2.71;100.00
10881;BME280;5493;48.884;8.338;2023-01-29T00:04:51;101476.88;;;2.98;100.00
10881;BME280;5493;48.884;8.338;2023-01-29T00:07:20;101470.59;;;2.70;100.00
10881;BME280;5493;48.884;8.338;2023-01-29T00:09:46;101475.63;;;2.73;100.00
10881;BME280;5493;48.884;8.338;2023-01-29T00:12:13;101471.69;;;2.58;100.00
10881;BME280;5493;48.884;8.338;2023-01-29T00:14:39;101476.19;;;2.67;100.00
10881;BME280;5493;48.884;8.338;2023-01-29T00:17:06;101473.38;;;2.69;100.00
10881;BME280;5493;48.884;8.338;2023-01-29T00:19:32;101471.41;;;2.61;100.00
10881;BME280;5493;48.884;8.338;2023-01-29T00:21:59;101473.38;;;2.69;100.00
10881;BME280;5493;48.884;8.338;2023-01-29T00:24:27;101472.97;;;2.64;100.00
10881;BME280;5493;48.884;8.338;2023-01-29T00:26:53;101458.97;;;2.81;100.00
10881;BME280;5493;48.884;8.338;2023-01-29T00:29:20;101471.28;;;2.91;100.00
10881;BME280;5493;48.884;8.338;2023-01-29T00:31:46;101469.44;;;2.82;100.00
10881;BME280;5493;48.884;8.338;2023-01-29T00:34:13;101474.50;;;2.95;100.00
10881;BME280;5493;48.884;8.338;2023-01-29T00:36:39;101466.63;;;2.93;100.00
10881;BME280;5493;48.884;8.338;2023-01-29T00:39:08;101469.75;;;2.89;100.00
10881;BME280;5493;48.884;8.338;2023-01-29T00:41:37;101472.28;;;2.71;100.00
10881;BME280;5493;48.884;8.338;2023-01-29T00:44:21;101468.75;;;2.80;100.00
10881;BME280;5493;48.884;8.338;2023-01-29T00:47:05;101468.63;;;2.72;100.00
10881;BME280;5493;48.884;8.338;2023-01-29T00:49:53;101470.56;;;2.61;100.00
10881;BME280;5493;48.884;8.338;2023-01-29T00:52:19;101458.78;;;2.82;100.00
10881;BME280;5493;48.884;8.338;2023-01-29T00:54:49;101465.53;;;2.58;100.00
10881;BME280;5493;48.884;8.338;2023-01-29T00:57:17;101472.41;;;2.70;100.00
10881;BME280;5493;48.884;8.338;2023-01-29T00:59:43;101476.44;;;2.64;100.00
10881;BME280;5493;48.884;8.338;2023-01-29T01:02:10;101471.69;;;2.68;100.00
10881;BME280;5493;48.884;8.338;2023-01-29T01:04:54;101471.84;;;2.57;100.00
10881;BME280;5493;48.884;8.338;2023-01-29T01:07:20;101468.63;;;2.53;100.00
10881;BME280;5493;48.884;8.338;2023-01-29T01:09:47;101469.31;;;2.45;100.00
10881;BME280;5493;48.884;8.338;2023-01-29T01:12:33;101468.88;;;2.40;100.00
10881;BME280;5493;48.884;8.338;2023-01-29T01:14:59;101474.50;;;2.57;100.00
10881;BME280;5493;48.884;8.338;2023-01-29T01:17:26;101473.47;;;2.29;100.00
10881;BME280;5493;48.884;8.338;2023-01-29T01:19:52;101468.88;;;2.40;100.00
10881;BME280;5493;48.884;8.338;2023-01-29T01:22:19;101475.19;;;2.49;100.00
10881;BME280;5493;48.884;8.338;2023-01-29T01:24:45;101470.00;;;2.57;100.00
10881;BME280;5493;48.884;8.338;2023-01-29T01:27:12;101476.75;;;2.52;100.00
10881;BME280;5493;48.884;8.338;2023-01-29T01:29:39;101479.28;;;2.53;100.00
10881;BME280;5493;48.884;8.338;2023-01-29T01:32:06;101477.88;;;2.49;100.00
10881;BME280;5493;48.884;8.338;2023-01-29T01:34:33;101486.41;;;2.72;100.00
10881;BME280;5493;48.884;8.338;2023-01-29T01:37:00;101480.09;;;2.73;100.00
10881;BME280;5493;48.884;8.338;2023-01-29T01:39:26;101480.81;;;2.65;100.00
10881;BME280;5493;48.884;8.338;2023-01-29T01:41:53;101484.31;;;2.75;100.00
10881;BME280;5493;48.884;8.338;2023-01-29T01:47:30;101485.16;;;2.76;100.00
10881;BME280;5493;48.884;8.338;2023-01-29T01:50:00;101476.88;;;2.79;100.00
10881;BME280;5493;48.884;8.338;2023-01-29T01:52:31;101477.84;;;2.68;100.00
10881;BME280;5493;48.884;8.338;2023-01-29T01:54:58;101484.31;;;2.66;100.00
10881;BME280;5493;48.884;8.338;2023-01-29T01:57:27;101480.69;;;2.67;100.00
10881;BME280;5493;48.884;8.338;2023-01-29T01:59:57;101483.19;;;2.49;100.00
10881;BME280;5493;48.884;8.338;2023-01-29T02:02:26;101473.50;;;2.48;100.00
10881;BME280;5493;48.884;8.338;2023-01-29T02:05:10;101469.72;;;2.41;100.00
10881;BME280;5493;48.884;8.338;2023-01-29T02:07:57;101468.75;;;2.52;100.00
10881;BME280;5493;48.884;8.338;2023-01-29T02:10:43;101468.47;;;2.45;100.00
10881;BME280;5493;48.884;8.338;2023-01-29T02:13:10;101468.75;;;2.61;100.00
10881;BME280;5493;48.884;8.338;2023-01-29T02:15:39;101473.22;;;2.51;100.00
10881;BME280;5493;48.884;8.338;2023-01-29T02:18:14;101479.81;;;2.37;100.00
10881;BME280;5493;48.884;8.338;2023-01-29T02:20:46;101479.53;;;2.50;100.00
10881;BME280;5493;48.884;8.338;2023-01-29T02:23:33;101477.41;;;2.44;100.00
10881;BME280;5493;48.884;8.338;2023-01-29T02:26:27;101476.69;;;2.23;100.00
10881;BME280;5493;48.884;8.338;2023-01-29T02:29:04;101477.81;;;2.30;100.00
10881;BME280;5493;48.884;8.338;2023-01-29T02:32:08;101472.94;;;2.35;100.00
10881;BME280;5493;48.884;8.338;2023-01-29T02:34:46;101473.22;;;2.61;100.00
10881;BME280;5493;48.884;8.338;2023-01-29T02:37:35;101476.75;;;2.61;100.00
10881;BME280;5493;48.884;8.338;2023-01-29T02:40:09;101472.09;;;2.44;100.00
10881;BME280;5493;48.884;8.338;2023-01-29T02:42:43;101477.72;;;2.51;100.00
10881;BME280;5493;48.884;8.338;2023-01-29T02:45:14;101470.13;;;2.27;100.00
10881;BME280;5493;48.884;8.338;2023-01-29T02:47:48;101470.97;;;2.37;100.00
10881;BME280;5493;48.884;8.338;2023-01-29T02:50:18;101472.22;;;2.33;100.00
10881;BME280;5493;48.884;8.338;2023-01-29T02:52:53;101469.16;;;2.47;100.00
10881;BME280;5493;48.884;8.338;2023-01-29T02:55:29;101473.22;;;2.41;100.00
10881;BME280;5493;48.884;8.338;2023-01-29T02:58:03;101463.97;;;2.36;100.00
10881;BME280;5493;48.884;8.338;2023-01-29T03:00:35;101470.13;;;2.27;100.00
10881;BME280;5493;48.884;8.338;2023-01-29T03:03:08;101472.09;;;2.44;100.00
10881;BME280;5493;48.884;8.338;2023-01-29T03:05:44;101466.78;;;2.44;100.00
10881;BME280;5493;48.884;8.338;2023-01-29T03:08:19;101466.50;;;2.37;100.00
10881;BME280;5493;48.884;8.338;2023-01-29T03:10:50;101460.03;;;2.40;100.00
10881;BME280;5493;48.884;8.338;2023-01-29T03:13:21;101464.66;;;2.28;100.00
10881;BME280;5493;48.884;8.338;2023-01-29T03:15:53;101455.00;;;2.46;100.00
10881;BME280;5493;48.884;8.338;2023-01-29T03:18:29;101450.25;;;2.50;100.00
10881;BME280;5493;48.884;8.338;2023-01-29T03:20:59;101452.91;;;2.69;100.00
10881;BME280;5493;48.884;8.338;2023-01-29T03:23:30;101447.47;;;2.71;100.00
10881;BME280;5493;48.884;8.338;2023-01-29T03:26:17;101450.69;;;2.74;100.00
10881;BME280;5493;48.884;8.338;2023-01-29T03:29:04;101452.09;;;2.78;100.00
10881;BME280;5493;48.884;8.338;2023-01-29T03:31:50;101450.09;;;2.90;100.00
10881;BME280;5493;48.884;8.338;2023-01-29T03:34:35;101448.88;;;2.75;100.00
10881;BME280;5493;48.884;8.338;2023-01-29T03:37:08;101451.91;;;2.89;100.00
10881;BME280;5493;48.884;8.338;2023-01-29T03:39:38;101456.56;;;2.78;100.00
10881;BME280;5493;48.884;8.338;2023-01-29T03:42:13;101458.53;;;2.85;100.00
10881;BME280;5493;48.884;8.338;2023-01-29T03:44:53;101463.16;;;2.55;100.00
10881;BME280;5493;48.884;8.338;2023-01-29T03:47:25;101457.97;;;2.53;100.00
10881;BME280;5493;48.884;8.338;2023-01-29T03:49:56;101468.19;;;2.48;100.00
10881;BME280;5493;48.884;8.338;2023-01-29T03:52:27;101463.16;;;2.55;100.00
10881;BME280;5493;48.884;8.338;2023-01-29T03:55:00;101456.28;;;2.62;100.00
10881;BME280;5493;48.884;8.338;2023-01-29T03:57:35;101459.38;;;2.67;100.00
10881;BME280;5493;48.884;8.338;2023-01-29T04:00:09;101455.59;;;2.88;100.00
10881;BME280;5493;48.884;8.338;2023-01-29T04:02:41;101454.31;;;2.83;100.00
10881;BME280;5493;48.884;8.338;2023-01-29T04:05:18;101459.34;;;2.86;100.00
10881;BME280;5493;48.884;8.338;2023-01-29T04:07:47;101455.59;;;2.88;100.00
10881;BME280;5493;48.884;8.338;2023-01-29T04:10:18;101468.19;;;2.58;100.00
10881;BME280;5493;48.884;8.338;2023-01-29T04:12:50;101457.28;;;2.70;100.00
10881;BME280;5493;48.884;8.338;2023-01-29T04:15:19;101462.72;;;2.69;100.00
10881;BME280;5493;48.884;8.338;2023-01-29T04:17:49;101456.44;;;2.70;100.00
10881;BME280;5493;48.884;8.338;2023-01-29T04:20:18;101457.69;;;2.75;100.00
10881;BME280;5493;48.884;8.338;2023-01-29T04:22:47;101463.56;;;2.79;100.00
10881;BME280;5493;48.884;8.338;2023-01-29T04:25:15;101464.41;;;2.70;100.00
10881;BME280;5493;48.884;8.338;2023-01-29T04:27:46;101468.88;;;2.79;100.00
10881;BME280;5493;48.884;8.338;2023-01-29T04:30:22;101463.28;;;2.91;100.00
10881;BME280;5493;48.884;8.338;2023-01-29T04:33:02;101464.41;;;2.79;100.00
10881;BME280;5493;48.884;8.338;2023-01-29T04:35:37;101453.63;;;2.81;100.00
10881;BME280;5493;48.884;8.338;2023-01-29T04:38:12;101455.59;;;2.60;100.00
10881;BME280;5493;48.884;8.338;2023-01-29T04:40:47;101458.09;;;2.52;100.00
10881;BME280;5493;48.884;8.338;2023-01-29T04:43:21;101460.44;;;2.26;100.00
10881;BME280;5493;48.884;8.338;2023-01-29T04:46:00;101465.19;;;2.22;100.00
10881;BME280;5493;48.884;8.338;2023-01-29T04:48:33;101464.78;;;2.27;100.00
10881;BME280;5493;48.884;8.338;2023-01-29T04:51:08;101455.13;;;2.35;100.00
10881;BME280;5493;48.884;8.338;2023-01-29T04:53:44;101452.63;;;2.34;100.00
10881;BME280;5493;48.884;8.338;2023-01-29T04:56:17;101461.16;;;2.37;100.00
10881;BME280;5493;48.884;8.338;2023-01-29T04:58:48;101458.78;;;2.34;100.00
10881;BME280;5493;48.884;8.338;2023-01-29T05:01:18;101463.03;;;2.56;100.00
10881;BME280;5493;48.884;8.338;2023-01-29T05:03:48;101461.72;;;2.51;100.00
10881;BME280;5493;48.884;8.338;2023-01-29T05:06:17;101465.69;;;2.56;100.00
10881;BME280;5493;48.884;8.338;2023-01-29T05:08:46;101468.34;;;2.56;100.00
10881;BME280;5493;48.884;8.338;2023-01-29T05:11:15;101463.97;;;2.36;100.00
10881;BME280;5493;48.884;8.338;2023-01-29T05:13:43;101473.34;;;2.40;100.00
10881;BME280;5493;48.884;8.338;2023-01-29T05:16:13;101486.31;;;2.14;100.00
10881;BME280;5493;48.884;8.338;2023-01-29T05:18:42;101487.00;;;2.07;100.00
10881;BME280;5493;48.884;8.338;2023-01-29T05:21:08;101488.66;;;1.98;100.00
10881;BME280;5493;48.884;8.338;2023-01-29T05:23:36;101481.72;;;2.26;100.00
10881;BME280;5493;48.884;8.338;2023-01-29T05:26:03;101463.41;;;2.32;100.00
10881;BME280;5493;48.884;8.338;2023-01-29T05:28:30;101458.88;;;2.14;100.00
10881;BME280;5493;48.884;8.338;2023-01-29T05:30:56;101440.22;;;2.04;100.00
10881;BME280;5493;48.884;8.338;2023-01-29T05:33:24;101438.47;;;2.24;100.00
10881;BME280;5493;48.884;8.338;2023-01-29T05:35:51;101420.25;;;2.10;100.00
10881;BME280;5493;48.884;8.338;2023-01-29T05:38:18;101425.41;;;2.21;100.00
10881;BME280;5493;48.884;8.338;2023-01-29T05:40:46;101428.09;;;2.40;100.00
10881;BME280;5493;48.884;8.338;2023-01-29T05:43:15;101435.81;;;2.43;100.00
10881;BME280;5493;48.884;8.338;2023-01-29T05:45:42;101436.25;;;2.38;100.00
10881;BME280;5493;48.884;8.338;2023-01-29T05:48:08;101432.88;;;2.27;100.00
10881;BME280;5493;48.884;8.338;2023-01-29T05:50:35;101413.53;;;2.15;100.00
10881;BME280;5493;48.884;8.338;2023-01-29T05:53:01;101435.81;;;2.24;100.00
10881;BME280;5493;48.884;8.338;2023-01-29T05:55:28;101449.81;;;2.26;100.00
10881;BME280;5493;48.884;8.338;2023-01-29T05:57:56;101447.25;;;2.15;100.00
10881;BME280;5493;48.884;8.338;2023-01-29T06:00:23;101445.31;;;2.17;100.00
10881;BME280;5493;48.884;8.338;2023-01-29T06:02:49;101439.84;;;2.18;100.00
10881;BME280;5493;48.884;8.338;2023-01-29T06:05:16;101453.44;;;2.25;100.00
10881;BME280;5493;48.884;8.338;2023-01-29T06:07:42;101462.25;;;2.25;100.00
10881;BME280;5493;48.884;8.338;2023-01-29T06:10:11;101459.56;;;2.06;100.00
10881;BME280;5493;48.884;8.338;2023-01-29T06:12:38;101469.72;;;2.31;100.00
10881;BME280;5493;48.884;8.338;2023-01-29T06:15:07;101464.50;;;2.20;100.00
10881;BME280;5493;48.884;8.338;2023-01-29T06:17:33;101471.50;;;2.21;100.00
10881;BME280;5493;48.884;8.338;2023-01-29T06:20:00;101472.38;;;2.31;100.00
10881;BME280;5493;48.884;8.338;2023-01-29T06:22:27;101470.41;;;2.33;100.00
10881;BME280;5493;48.884;8.338;2023-01-29T06:24:53;101473.22;;;2.61;100.00
10881;BME280;5493;48.884;8.338;2023-01-29T06:27:20;101474.25;;;2.01;100.00
10881;BME280;5493;48.884;8.338;2023-01-29T06:29:46;101467.22;;;2.49;100.00
10881;BME280;5493;48.884;8.338;2023-01-29T06:32:14;101462.84;;;2.58;100.00
10881;BME280;5493;48.884;8.338;2023-01-29T06:34:40;101462.16;;;2.46;100.00
10881;BME280;5493;48.884;8.338;2023-01-29T06:37:07;101463.09;;;2.16;100.00
10881;BME280;5493;48.884;8.338;2023-01-29T06:39:33;101464.75;;;2.17;100.00
10881;BME280;5493;48.884;8.338;2023-01-29T06:42:00;101460.84;;;2.12;100.00
10881;BME280;5493;48.884;8.338;2023-01-29T06:44:26;101456.19;;;2.14;100.00
10881;BME280;5493;48.884;8.338;2023-01-29T06:46:53;101461.81;;;2.11;100.00
10881;BME280;5493;48.884;8.338;2023-01-29T06:49:21;101462.34;;;2.05;100.00
10881;BME280;5493;48.884;8.338;2023-01-29T06:51:47;101455.25;;;2.24;100.00
10881;BME280;5493;48.884;8.338;2023-01-29T06:54:14;101450.03;;;2.04;100.00
10881;BME280;5493;48.884;8.338;2023-01-29T06:56:40;101447.66;;;2.10;100.00
10881;BME280;5493;48.884;8.338;2023-01-29T06:59:07;101439.13;;;2.07;100.00
10881;BME280;5493;48.884;8.338;2023-01-29T07:01:33;101447.19;;;2.45;100.00
10881;BME280;5493;48.884;8.338;2023-01-29T07:04:00;101435.16;;;2.60;100.00
10881;BME280;5493;48.884;8.338;2023-01-29T07:06:29;101451.88;;;2.13;100.00
10881;BME280;5493;48.884;8.338;2023-01-29T07:08:56;101449.34;;;2.21;100.00
10881;BME280;5493;48.884;8.338;2023-01-29T07:11:22;101452.59;;;2.24;100.00
10881;BME280;5493;48.884;8.338;2023-01-29T07:13:49;101462.25;;;2.25;100.00
10881;BME280;5493;48.884;8.338;2023-01-29T07:16:15;101461.84;;;2.30;100.00
10881;BME280;5493;48.884;8.338;2023-01-29T07:18:43;101465.75;;;2.16;100.00
10881;BME280;5493;48.884;8.338;2023-01-29T07:21:09;101465.25;;;2.41;100.00
10881;BME280;5493;48.884;8.338;2023-01-29T07:23:37;101473.06;;;2.24;100.00
10881;BME280;5493;48.884;8.338;2023-01-29T07:26:05;101478.63;;;2.21;100.00
10881;BME280;5493;48.884;8.338;2023-01-29T07:28:35;101474.03;;;2.32;100.00
10881;BME280;5493;48.884;8.338;2023-01-29T07:31:02;101485.81;;;2.39;100.00
10881;BME280;5493;48.884;8.338;2023-01-29T07:33:29;101482.59;;;2.36;100.00
10881;BME280;5493;48.884;8.338;2023-01-29T07:35:56;101490.66;;;2.15;100.00
10881;BME280;5493;48.884;8.338;2023-01-29T07:38:22;101484.66;;;2.13;100.00
10881;BME280;5493;48.884;8.338;2023-01-29T07:40:52;101483.25;;;2.19;100.00
10881;BME280;5493;48.884;8.338;2023-01-29T07:43:18;101476.00;;;2.30;100.00
10881;BME280;5493;48.884;8.338;2023-01-29T07:45:45;101480.56;;;2.09;100.00
10881;BME280;5493;48.884;8.338;2023-01-29T07:48:12;101473.59;;;2.18;100.00
10881;BME280;5493;48.884;8.338;2023-01-29T07:50:39;101478.91;;;2.18;100.00
10881;BME280;5493;48.884;8.338;2023-01-29T07:53:07;101478.81;;;2.38;100.00
10881;BME280;5493;48.884;8.338;2023-01-29T07:55:37;101499.00;;;2.51;100.00
10881;BME280;5493;48.884;8.338;2023-01-29T07:58:05;101503.91;;;2.55;100.00
10881;BME280;5493;48.884;8.338;2023-01-29T08:00:32;101510.50;;;2.41;100.00
10881;BME280;5493;48.884;8.338;2023-01-29T08:03:02;101511.06;;;2.45;100.00
10881;BME280;5493;48.884;8.338;2023-01-29T08:05:29;101514.09;;;2.31;100.00
10881;BME280;5493;48.884;8.338;2023-01-29T08:07:55;101519.31;;;2.52;100.00
10881;BME280;5493;48.884;8.338;2023-01-29T08:10:22;101522.94;;;2.31;100.00
10881;BME280;5493;48.884;8.338;2023-01-29T08:12:53;101516.09;;;2.38;100.00
10881;BME280;5493;48.884;8.338;2023-01-29T08:15:21;101508.69;;;2.52;100.00
10881;BME280;5493;48.884;8.338;2023-01-29T08:17:48;101511.06;;;2.45;100.00
10881;BME280;5493;48.884;8.338;2023-01-29T08:20:15;101515.66;;;2.43;100.00
10881;BME280;5493;48.884;8.338;2023-01-29T08:22:41;101516.09;;;2.38;100.00
10881;BME280;5493;48.884;8.338;2023-01-29T08:25:08;101523.78;;;2.41;100.00
10881;BME280;5493;48.884;8.338;2023-01-29T08:27:35;101523.06;;;2.39;100.00
10881;BME280;5493;48.884;8.338;2023-01-29T08:30:02;101532.44;;;2.34;100.00
10881;BME280;5493;48.884;8.338;2023-01-29T08:32:30;101522.16;;;2.60;100.00
10881;BME280;5493;48.884;8.338;2023-01-29T08:34:57;101523.81;;;2.51;100.00
10881;BME280;5493;48.884;8.338;2023-01-29T08:37:23;101523.53;;;2.54;100.00
10881;BME280;5493;48.884;8.338;2023-01-29T08:39:50;101532.06;;;2.38;100.00
10881;BME280;5493;48.884;8.338;2023-01-29T08:42:16;101522.78;;;2.42;100.00
10881;BME280;5493;48.884;8.338;2023-01-29T08:44:43;101525.88;;;2.38;100.00
10881;BME280;5493;48.884;8.338;2023-01-29T08:47:09;101523.06;;;2.30;100.00
10881;BME280;5493;48.884;8.338;2023-01-29T08:49:37;101522.69;;;2.54;100.00
10881;BME280;5493;48.884;8.338;2023-01-29T08:52:04;101530.72;;;2.73;100.00
10881;BME280;5493;48.884;8.338;2023-01-29T08:54:30;101527.75;;;2.57;100.00
10881;BME280;5493;48.884;8.338;2023-01-29T08:56:57;101535.34;;;2.90;100.00
10881;BME280;5493;48.884;8.338;2023-01-29T08:59:23;101527.22;;;2.82;100.00
10881;BME280;5493;48.884;8.338;2023-01-29T09:01:50;101522.03;;;2.90;100.00
10881;BME280;5493;48.884;8.338;2023-01-29T09:04:16;101520.91;;;3.02;100.00
10881;BME280;5493;48.884;8.338;2023-01-29T09:06:44;101513.63;;;2.94;100.00
10881;BME280;5493;48.884;8.338;2023-01-29T09:09:11;101512.91;;;3.12;100.00
10881;BME280;5493;48.884;8.338;2023-01-29T09:11:38;101506.03;;;3.28;100.00
10881;BME280;5493;48.884;8.338;2023-01-29T09:14:05;101508.03;;;3.07;100.00
10881;BME280;5493;48.884;8.338;2023-01-29T09:16:33;101506.03;;;2.90;100.00
10881;BME280;5493;48.884;8.338;2023-01-29T09:19:00;101519.22;;;3.01;100.00
10881;BME280;5493;48.884;8.338;2023-01-29T09:21:26;101534.22;;;3.12;100.00
10881;BME280;5493;48.884;8.338;2023-01-29T09:23:54;101528.34;;;3.08;100.00
10881;BME280;5493;48.884;8.338;2023-01-29T09:26:21;101536.75;;;3.23;100.00
10881;BME280;5493;48.884;8.338;2023-01-29T09:28:47;101544.75;;;3.13;100.00
10881;BME280;5493;48.884;8.338;2023-01-29T09:31:14;101539.28;;;3.24;100.00
10881;BME280;5493;48.884;8.338;2023-01-29T09:33:40;101535.63;;;3.25;100.00
10881;BME280;5493;48.884;8.338;2023-01-29T09:36:07;101523.38;;;3.52;100.00
10881;BME280;5493;48.884;8.338;2023-01-29T09:38:34;101513.34;;;3.73;100.00
10881;BME280;5493;48.884;8.338;2023-01-29T09:41:07;101503.50;;;3.83;100.00
10881;BME280;5493;48.884;8.338;2023-01-29T09:43:42;101494.00;;;4.08;100.00
10881;BME280;5493;48.884;8.338;2023-01-29T09:46:17;101477.72;;;4.28;100.00
10881;BME280;5493;48.884;8.338;2023-01-29T09:48:45;101469.34;;;4.41;100.00
10881;BME280;5493;48.884;8.338;2023-01-29T09:51:20;101463.81;;;4.70;100.00
10881;BME280;5493;48.884;8.338;2023-01-29T09:53:54;101459.00;;;4.91;100.00
10881;BME280;5493;48.884;8.338;2023-01-29T09:56:25;101460.88;;;4.99;100.00
10881;BME280;5493;48.884;8.338;2023-01-29T09:58:55;101460.94;;;5.07;100.00
10881;BME280;5493;48.884;8.338;2023-01-29T10:01:26;101463.47;;;5.08;100.00
10881;BME280;5493;48.884;8.338;2023-01-29T10:04:18;101473.13;;;5.27;100.00
10881;BME280;5493;48.884;8.338;2023-01-29T10:06:59;101466.91;;;5.01;100.00
10881;BME280;5493;48.884;8.338;2023-01-29T10:09:46;101469.72;;;5.17;100.00
10881;BME280;5493;48.884;8.338;2023-01-29T10:12:34;101473.72;;;4.77;100.00
10881;BME280;5493;48.884;8.338;2023-01-29T10:15:15;101469.06;;;4.97;100.00
10881;BME280;5493;48.884;8.338;2023-01-29T10:17:55;101475.16;;;4.89;100.00
10881;BME280;5493;48.884;8.338;2023-01-29T10:20:45;101471.88;;;4.78;100.00
10881;BME280;5493;48.884;8.338;2023-01-29T10:23:19;101469.13;;;4.87;100.00
10881;BME280;5493;48.884;8.338;2023-01-29T10:25:47;101476.00;;;5.33;100.00
10881;BME280;5493;48.884;8.338;2023-01-29T10:28:17;101466.25;;;4.81;100.00
10881;BME280;5493;48.884;8.338;2023-01-29T10:30:50;101475.16;;;4.89;100.00
10881;BME280;5493;48.884;8.338;2023-01-29T10:33:21;101480.72;;;4.78;100.00
10881;BME280;5493;48.884;8.338;2023-01-29T10:35:52;101483.94;;;5.17;100.00
10881;BME280;5493;48.884;8.338;2023-01-29T10:41:19;101479.72;;;4.97;100.00
10881;BME280;5493;48.884;8.338;2023-01-29T10:44:03;101482.47;;;5.05;100.00
10881;BME280;5493;48.884;8.338;2023-01-29T10:46:46;101486.16;;;4.69;100.00
10881;BME280;5493;48.884;8.338;2023-01-29T10:49:27;101481.00;;;5.11;100.00
10881;BME280;5493;48.884;8.338;2023-01-29T10:52:07;101478.59;;;4.64;100.00
10881;BME280;5493;48.884;8.338;2023-01-29T10:54:54;101487.09;;;4.77;100.00
10881;BME280;5493;48.884;8.338;2023-01-29T10:57:36;101486.47;;;4.66;100.00
10881;BME280;5493;48.884;8.338;2023-01-29T11:00:12;101488.25;;;5.18;100.00
10881;BME280;5493;48.884;8.338;2023-01-29T11:02:44;101493.25;;;5.57;100.00
10881;BME280;5493;48.884;8.338;2023-01-29T11:05:18;101487.91;;;5.39;100.00
10881;BME280;5493;48.884;8.338;2023-01-29T11:07:47;101475.38;;;5.65;100.00
10881;BME280;5493;48.884;8.338;2023-01-29T11:10:16;101468.66;;;5.87;100.00
10881;BME280;5493;48.884;8.338;2023-01-29T11:12:46;101465.63;;;5.56;100.00
10881;BME280;5493;48.884;8.338;2023-01-29T11:15:17;101460.03;;;5.67;100.00
10881;BME280;5493;48.884;8.338;2023-01-29T11:18:02;101447.75;;;5.57;100.00
10881;BME280;5493;48.884;8.338;2023-01-29T11:20:30;101453.03;;;6.00;100.00
10881;BME280;5493;48.884;8.338;2023-01-29T11:22:57;101446.47;;;5.94;100.00
10881;BME280;5493;48.884;8.338;2023-01-29T11:25:24;101453.88;;;6.09;100.00
10881;BME280;5493;48.884;8.338;2023-01-29T11:27:54;101442.16;;;6.10;100.00
10881;BME280;5493;48.884;8.338;2023-01-29T11:30:23;101438.31;;;6.12;100.00
10881;BME280;5493;48.884;8.338;2023-01-29T11:32:57;101437.50;;;6.20;100.00
10881;BME280;5493;48.884;8.338;2023-01-29T11:35:25;101430.53;;;5.59;100.00
10881;BME280;5493;48.884;8.338;2023-01-29T11:38:05;101423.22;;;5.69;100.00
10881;BME280;5493;48.884;8.338;2023-01-29T11:40:36;101425.94;;;6.03;100.00
10881;BME280;5493;48.884;8.338;2023-01-29T11:43:28;101422.03;;;5.98;100.00
10881;BME280;5493;48.884;8.338;2023-01-29T11:45:57;101418.47;;;5.55;100.00
10881;BME280;5493;48.884;8.338;2023-01-29T11:48:32;101418.25;;;5.82;100.00
10881;BME280;5493;48.884;8.338;2023-01-29T11:51:05;101422.22;;;5.36;100.00
10881;BME280;5493;48.884;8.338;2023-01-29T11:53:35;101416.72;;;5.72;100.00
10881;BME280;5493;48.884;8.338;2023-01-29T11:56:05;101410.31;;;5.65;100.00
10881;BME280;5493;48.884;8.338;2023-01-29T11:58:41;101398.81;;;6.06;100.00
10881;BME280;5493;48.884;8.338;2023-01-29T12:01:09;101395.00;;;6.17;100.00
10881;BME280;5493;48.884;8.338;2023-01-29T12:03:40;101385.66;;;6.29;100.00
10881;BME280;5493;48.884;8.338;2023-01-29T12:06:14;101372.56;;;6.10;100.00
10881;BME280;5493;48.884;8.338;2023-01-29T12:08:43;101367.56;;;6.15;100.00
10881;BME280;5493;48.884;8.338;2023-01-29T12:11:23;101363.41;;;6.28;100.00
10881;BME280;5493;48.884;8.338;2023-01-29T12:13:53;101358.06;;;6.61;100.00
10881;BME280;5493;48.884;8.338;2023-01-29T12:16:24;101351.78;;;7.17;100.00
10881;BME280;5493;48.884;8.338;2023-01-29T12:18:56;101349.31;;;7.62;100.00
10881;BME280;5493;48.884;8.338;2023-01-29T12:21:29;101349.28;;;7.70;100.00
10881;BME280;5493;48.884;8.338;2023-01-29T12:24:02;101337.69;;;7.70;100.00
10881;BME280;5493;48.884;8.338;2023-01-29T12:26:33;101326.38;;;8.36;100.00
10881;BME280;5493;48.884;8.338;2023-01-29T12:29:20;101323.31;;;8.16;98.15
10881;BME280;5493;48.884;8.338;2023-01-29T12:31:58;101326.69;;;8.41;97.48
10881;BME280;5493;48.884;8.338;2023-01-29T12:34:32;101327.41;;;8.04;99.80
10881;BME280;5493;48.884;8.338;2023-01-29T12:37:10;101315.22;;;8.24;99.59
10881;BME280;5493;48.884;8.338;2023-01-29T12:39:38;101311.69;;;7.70;100.00
10881;BME280;5493;48.884;8.338;2023-01-29T12:42:09;101301.59;;;7.72;100.00
10881;BME280;5493;48.884;8.338;2023-01-29T12:44:41;101293.88;;;8.00;99.84
10881;BME280;5493;48.884;8.338;2023-01-29T12:47:15;101293.03;;;8.00;100.00
10881;BME280;5493;48.884;8.338;2023-01-29T12:49:44;101284.69;;;8.63;100.00
10881;BME280;5493;48.884;8.338;2023-01-29T12:52:16;101293.69;;;7.79;100.00
10881;BME280;5493;48.884;8.338;2023-01-29T12:54:48;101284.25;;;8.74;98.41
10881;BME280;5493;48.884;8.338;2023-01-29T12:57:20;101277.88;;;9.04;93.51
10881;BME280;5493;48.884;8.338;2023-01-29T12:59:52;101282.69;;;9.09;89.43
10881;BME280;5493;48.884;8.338;2023-01-29T13:02:31;101267.78;;;8.54;92.03
10881;BME280;5493;48.884;8.338;2023-01-29T13:05:02;101262.00;;;9.09;91.90
10881;BME280;5493;48.884;8.338;2023-01-29T13:07:32;101262.38;;;9.06;95.83
10881;BME280;5493;48.884;8.338;2023-01-29T13:10:06;101256.50;;;9.32;91.19
10881;BME280;5493;48.884;8.338;2023-01-29T13:12:36;101242.31;;;8.65;92.20
10881;BME280;5493;48.884;8.338;2023-01-29T13:15:14;101249.50;;;8.35;94.62
10881;BME280;5493;48.884;8.338;2023-01-29T13:17:46;101257.13;;;8.01;95.07
10881;BME280;5493;48.884;8.338;2023-01-29T13:20:18;101256.03;;;7.87;99.28
10881;BME280;5493;48.884;8.338;2023-01-29T13:22:49;101260.91;;;7.61;100.00
10881;BME280;5493;48.884;8.338;2023-01-29T13:25:18;101263.75;;;7.90;99.61
10881;BME280;5493;48.884;8.338;2023-01-29T13:27:46;101257.97;;;8.61;98.80